sensor_id;sensor_type;location;lat;lon;timestamp;pressure;altitude;pressure_sealevel;temperature
49154;BMP280;49455;52.252;9.124;2023-02-27T00:04:24;100773.50;;;-1.12
49154;BMP280;49455;52.252;9.124;2023-02-27T00:09:24;100783.03;;;-1.27
49154;BMP280;49455;52.252;9.124;2023-02-27T00:14:25;100770.34;;;-1.37
49154;BMP280;49455;52.252;9.124;2023-02-27T00:19:25;100770.59;;;-1.52
49154;BMP280;49455;52.252;9.124;2023-02-27T00:24:26;100779.31;;;-1.59
49154;BMP280;49455;52.252;9.124;2023-02-27T00:29:26;100775.47;;;-1.64
49154;BMP280;49455;52.252;9.124;2023-02-27T00:34:27;100776.41;;;-1.72
49154;BMP280;49455;52.252;9.124;2023-02-27T00:39:27;100791.66;;;-1.80
49154;BMP280;49455;52.252;9.124;2023-02-27T00:44:27;100781.00;;;-1.86
49154;BMP280;49455;52.252;9.124;2023-02-27T00:49:28;100779.66;;;-1.91
49154;BMP280;49455;52.252;9.124;2023-02-27T00:54:28;100784.91;;;-1.98
49154;BMP280;49455;52.252;9.124;2023-02-27T00:59:28;100781.97;;;-2.02
49154;BMP280;49455;52.252;9.124;2023-02-27T01:04:29;100784.63;;;-2.01
49154;BMP280;49455;52.252;9.124;2023-02-27T01:09:29;100780.06;;;-2.05
49154;BMP280;49455;52.252;9.124;2023-02-27T01:14:30;100786.06;;;-2.12
49154;BMP280;49455;52.252;9.124;2023-02-27T01:19:30;100790.34;;;-2.12
49154;BMP280;49455;52.252;9.124;2023-02-27T01:24:32;100792.16;;;-2.11
49154;BMP280;49455;52.252;9.124;2023-02-27T01:29:32;100804.25;;;-2.16
49154;BMP280;49455;52.252;9.124;2023-02-27T01:34:35;100799.66;;;-2.20
49154;BMP280;49455;52.252;9.124;2023-02-27T01:39:35;100796.28;;;-2.29
49154;BMP280;49455;52.252;9.124;2023-02-27T01:50:09;100791.94;;;-2.57
49154;BMP280;49455;52.252;9.124;2023-02-27T01:55:11;100793.69;;;-2.56
49154;BMP280;49455;52.252;9.124;2023-02-27T02:00:14;100787.31;;;-2.61
49154;BMP280;49455;52.252;9.124;2023-02-27T02:05:14;100781.53;;;-2.60
49154;BMP280;49455;52.252;9.124;2023-02-27T02:10:16;100776.03;;;-2.72
49154;BMP280;49455;52.252;9.124;2023-02-27T02:15:18;100785.84;;;-2.67
49154;BMP280;49455;52.252;9.124;2023-02-27T02:20:53;100783.44;;;-2.66
49154;BMP280;49455;52.252;9.124;2023-02-27T02:26:30;100780.47;;;-2.62
49154;BMP280;49455;52.252;9.124;2023-02-27T02:42:19;100793.31;;;-2.77
49154;BMP280;49455;52.252;9.124;2023-02-27T02:52:48;100794.25;;;-2.93
49154;BMP280;49455;52.252;9.124;2023-02-27T02:58:01;100781.50;;;-3.03
49154;BMP280;49455;52.252;9.124;2023-02-27T03:08:20;100783.59;;;-3.16
49154;BMP280;49455;52.252;9.124;2023-02-27T03:13:35;100780.59;;;-3.12
49154;BMP280;49455;52.252;9.124;2023-02-27T03:18:49;100781.94;;;-3.15
49154;BMP280;49455;52.252;9.124;2023-02-27T03:23:55;100799.06;;;-3.30
49154;BMP280;49455;52.252;9.124;2023-02-27T03:29:01;100794.00;;;-3.30
49154;BMP280;49455;52.252;9.124;2023-02-27T03:34:26;100796.25;;;-3.41
49154;BMP280;49455;52.252;9.124;2023-02-27T03:50:03;100813.63;;;-3.35
49154;BMP280;49455;52.252;9.124;2023-02-27T03:55:16;100811.53;;;-3.31
49154;BMP280;49455;52.252;9.124;2023-02-27T04:00:22;100816.44;;;-3.32
49154;BMP280;49455;52.252;9.124;2023-02-27T04:05:23;100826.38;;;-3.26
49154;BMP280;49455;52.252;9.124;2023-02-27T04:31:53;100841.13;;;-3.38
49154;BMP280;49455;52.252;9.124;2023-02-27T04:36:58;100841.44;;;-3.35
49154;BMP280;49455;52.252;9.124;2023-02-27T04:42:03;100840.97;;;-3.32
49154;BMP280;49455;52.252;9.124;2023-02-27T04:47:06;100846.31;;;-3.37
49154;BMP280;49455;52.252;9.124;2023-02-27T04:52:13;100843.03;;;-3.36
49154;BMP280;49455;52.252;9.124;2023-02-27T04:57:19;100848.72;;;-3.30
49154;BMP280;49455;52.252;9.124;2023-02-27T05:02:30;100849.00;;;-3.35
49154;BMP280;49455;52.252;9.124;2023-02-27T05:07:40;100858.06;;;-3.37
49154;BMP280;49455;52.252;9.124;2023-02-27T05:12:51;100867.00;;;-3.32
49154;BMP280;49455;52.252;9.124;2023-02-27T05:18:00;100861.47;;;-3.45
49154;BMP280;49455;52.252;9.124;2023-02-27T05:23:14;100871.41;;;-3.47
49154;BMP280;49455;52.252;9.124;2023-02-27T05:28:20;100867.41;;;-3.36
49154;BMP280;49455;52.252;9.124;2023-02-27T05:33:40;100871.41;;;-3.47
49154;BMP280;49455;52.252;9.124;2023-02-27T05:38:44;100877.50;;;-3.53
49154;BMP280;49455;52.252;9.124;2023-02-27T05:44:00;100877.50;;;-3.53
49154;BMP280;49455;52.252;9.124;2023-02-27T05:49:13;100881.22;;;-3.50
49154;BMP280;49455;52.252;9.124;2023-02-27T05:54:33;100881.38;;;-3.48
49154;BMP280;49455;52.252;9.124;2023-02-27T05:59:42;100886.91;;;-3.44
49154;BMP280;49455;52.252;9.124;2023-02-27T06:04:46;100886.59;;;-3.38
49154;BMP280;49455;52.252;9.124;2023-02-27T06:09:46;100893.28;;;-3.31
49154;BMP280;49455;52.252;9.124;2023-02-27T06:14:47;100893.59;;;-3.28
49154;BMP280;49455;52.252;9.124;2023-02-27T06:19:48;100903.13;;;-3.17
49154;BMP280;49455;52.252;9.124;2023-02-27T06:24:48;100899.69;;;-3.09
49154;BMP280;49455;52.252;9.124;2023-02-27T06:29:48;100902.53;;;-3.06
49154;BMP280;49455;52.252;9.124;2023-02-27T06:34:49;100913.97;;;-3.01
49154;BMP280;49455;52.252;9.124;2023-02-27T06:39:49;100920.06;;;-2.99
49154;BMP280;49455;52.252;9.124;2023-02-27T06:44:50;100925.41;;;-2.88
49154;BMP280;49455;52.252;9.124;2023-02-27T06:49:50;100925.13;;;-2.82
49154;BMP280;49455;52.252;9.124;2023-02-27T06:54:51;100922.44;;;-2.75
49154;BMP280;49455;52.252;9.124;2023-02-27T06:59:51;100927.22;;;-2.78
49154;BMP280;49455;52.252;9.124;2023-02-27T07:04:52;100918.28;;;-2.83
49154;BMP280;49455;52.252;9.124;2023-02-27T07:09:52;100920.66;;;-2.76
49154;BMP280;49455;52.252;9.124;2023-02-27T07:14:52;100932.41;;;-2.69
49154;BMP280;49455;52.252;9.124;2023-02-27T07:19:53;100939.66;;;-2.55
49154;BMP280;49455;52.252;9.124;2023-02-27T07:24:53;100939.22;;;-2.51
49154;BMP280;49455;52.252;9.124;2023-02-27T07:29:53;100949.91;;;-2.28
49154;BMP280;49455;52.252;9.124;2023-02-27T07:34:54;100945.88;;;-2.26
49154;BMP280;49455;52.252;9.124;2023-02-27T07:39:54;100949.75;;;-2.21
49154;BMP280;49455;52.252;9.124;2023-02-27T07:44:55;100957.16;;;-2.14
49154;BMP280;49455;52.252;9.124;2023-02-27T07:49:55;100953.72;;;-2.07
49154;BMP280;49455;52.252;9.124;2023-02-27T07:54:55;100956.81;;;-2.01
49154;BMP280;49455;52.252;9.124;2023-02-27T07:59:56;100963.06;;;-1.89
49154;BMP280;49455;52.252;9.124;2023-02-27T08:04:56;100953.31;;;-1.76
49154;BMP280;49455;52.252;9.124;2023-02-27T08:09:57;100962.50;;;-1.68
49154;BMP280;49455;52.252;9.124;2023-02-27T08:14:57;100956.53;;;-1.60
49154;BMP280;49455;52.252;9.124;2023-02-27T08:19:57;100946.16;;;-1.45
49154;BMP280;49455;52.252;9.124;2023-02-27T08:24:58;100962.81;;;-1.39
49154;BMP280;49455;52.252;9.124;2023-02-27T08:29:58;100948.53;;;-1.20
49154;BMP280;49455;52.252;9.124;2023-02-27T08:34:59;100950.97;;;-1.03
49154;BMP280;49455;52.252;9.124;2023-02-27T08:39:59;100945.97;;;-0.93
49154;BMP280;49455;52.252;9.124;2023-02-27T08:45:00;100960.44;;;-0.74
49154;BMP280;49455;52.252;9.124;2023-02-27T08:50:00;100955.38;;;-0.56
49154;BMP280;49455;52.252;9.124;2023-02-27T08:55:00;100945.22;;;-0.56
49154;BMP280;49455;52.252;9.124;2023-02-27T09:00:02;100947.53;;;-0.49
49154;BMP280;49455;52.252;9.124;2023-02-27T09:05:03;100952.34;;;-0.52
49154;BMP280;49455;52.252;9.124;2023-02-27T09:10:04;100964.50;;;-0.30
49154;BMP280;49455;52.252;9.124;2023-02-27T09:15:05;100964.94;;;-0.26
49154;BMP280;49455;52.252;9.124;2023-02-27T09:20:09;100977.97;;;-0.03
49154;BMP280;49455;52.252;9.124;2023-02-27T09:25:10;100967.25;;;0.09
49154;BMP280;49455;52.252;9.124;2023-02-27T09:30:11;100969.16;;;0.12
49154;BMP280;49455;52.252;9.124;2023-02-27T09:35:12;100965.13;;;0.24
49154;BMP280;49455;52.252;9.124;2023-02-27T09:40:27;100966.94;;;0.34
49154;BMP280;49455;52.252;9.124;2023-02-27T09:45:32;100963.78;;;0.37
49154;BMP280;49455;52.252;9.124;2023-02-27T09:55:39;100968.81;;;0.94
49154;BMP280;49455;52.252;9.124;2023-02-27T10:11:03;100959.41;;;1.23
49154;BMP280;49455;52.252;9.124;2023-02-27T10:16:05;100963.22;;;1.08
49154;BMP280;49455;52.252;9.124;2023-02-27T10:21:14;100969.72;;;1.05
49154;BMP280;49455;52.252;9.124;2023-02-27T10:26:19;100966.16;;;1.13
49154;BMP280;49455;52.252;9.124;2023-02-27T10:31:24;100964.50;;;1.23
49154;BMP280;49455;52.252;9.124;2023-02-27T10:36:26;100949.34;;;1.85
49154;BMP280;49455;52.252;9.124;2023-02-27T10:41:27;100955.53;;;1.98
49154;BMP280;49455;52.252;9.124;2023-02-27T10:46:30;100954.34;;;2.68
49154;BMP280;49455;52.252;9.124;2023-02-27T10:51:33;100947.50;;;3.11
49154;BMP280;49455;52.252;9.124;2023-02-27T10:56:34;100950.09;;;3.22
49154;BMP280;49455;52.252;9.124;2023-02-27T11:01:48;100947.97;;;3.17
49154;BMP280;49455;52.252;9.124;2023-02-27T11:06:52;100946.22;;;3.27
49154;BMP280;49455;52.252;9.124;2023-02-27T11:11:53;100929.63;;;3.66
49154;BMP280;49455;52.252;9.124;2023-02-27T11:16:59;100923.41;;;3.74
49154;BMP280;49455;52.252;9.124;2023-02-27T11:22:12;100924.69;;;3.91
49154;BMP280;49455;52.252;9.124;2023-02-27T11:32:20;100926.66;;;4.18
49154;BMP280;49455;52.252;9.124;2023-02-27T11:37:34;100920.66;;;4.18
49154;BMP280;49455;52.252;9.124;2023-02-27T11:42:36;100917.97;;;4.16
49154;BMP280;49455;52.252;9.124;2023-02-27T11:47:40;100928.38;;;4.06
49154;BMP280;49455;52.252;9.124;2023-02-27T11:52:52;100930.63;;;4.37
49154;BMP280;49455;52.252;9.124;2023-02-27T11:57:59;100929.69;;;4.48
49154;BMP280;49455;52.252;9.124;2023-02-27T12:08:17;100924.94;;;4.65
49154;BMP280;49455;52.252;9.124;2023-02-27T12:13:23;100911.66;;;4.95
49154;BMP280;49455;52.252;9.124;2023-02-27T12:19:14;100911.66;;;4.95
49154;BMP280;49455;52.252;9.124;2023-02-27T12:29:38;100908.63;;;5.63
49154;BMP280;49455;52.252;9.124;2023-02-27T12:34:44;100918.41;;;5.06
49154;BMP280;49455;52.252;9.124;2023-02-27T12:39:47;100911.47;;;5.29
49154;BMP280;49455;52.252;9.124;2023-02-27T12:50:14;100912.78;;;5.61
49154;BMP280;49455;52.252;9.124;2023-02-27T12:55:24;100901.25;;;5.67
49154;BMP280;49455;52.252;9.124;2023-02-27T13:00:28;100901.88;;;5.89
49154;BMP280;49455;52.252;9.124;2023-02-27T13:10:45;100915.47;;;5.25
49154;BMP280;49455;52.252;9.124;2023-02-27T13:15:54;100901.78;;;5.74
49154;BMP280;49455;52.252;9.124;2023-02-27T13:21:02;100909.75;;;5.66
49154;BMP280;49455;52.252;9.124;2023-02-27T13:26:23;100900.19;;;5.76
49154;BMP280;49455;52.252;9.124;2023-02-27T13:31:34;100896.09;;;4.92
49154;BMP280;49455;52.252;9.124;2023-02-27T13:41:42;100886.97;;;5.08
49154;BMP280;49455;52.252;9.124;2023-02-27T13:46:43;100901.13;;;5.66
49154;BMP280;49455;52.252;9.124;2023-02-27T13:51:45;100888.53;;;5.94
49154;BMP280;49455;52.252;9.124;2023-02-27T14:07:02;100887.34;;;5.64
49154;BMP280;49455;52.252;9.124;2023-02-27T14:12:06;100902.28;;;5.07
49154;BMP280;49455;52.252;9.124;2023-02-27T14:17:09;100898.66;;;4.92
49154;BMP280;49455;52.252;9.124;2023-02-27T14:27:21;100895.38;;;5.81
49154;BMP280;49455;52.252;9.124;2023-02-27T14:32:27;100887.16;;;5.86
49154;BMP280;49455;52.252;9.124;2023-02-27T14:37:28;100898.16;;;5.21
49154;BMP280;49455;52.252;9.124;2023-02-27T14:42:56;100907.03;;;4.89
49154;BMP280;49455;52.252;9.124;2023-02-27T14:48:01;100899.47;;;4.91
49154;BMP280;49455;52.252;9.124;2023-02-27T14:53:04;100888.16;;;5.75
49154;BMP280;49455;52.252;9.124;2023-02-27T14:58:17;100899.56;;;5.68
49154;BMP280;49455;52.252;9.124;2023-02-27T15:08:41;100891.38;;;6.11
49154;BMP280;49455;52.252;9.124;2023-02-27T15:13:43;100888.63;;;5.70
49154;BMP280;49455;52.252;9.124;2023-02-27T15:18:52;100892.41;;;5.25
49154;BMP280;49455;52.252;9.124;2023-02-27T15:28:58;100898.38;;;4.87
49154;BMP280;49455;52.252;9.124;2023-02-27T15:33:59;100905.19;;;4.76
49154;BMP280;49455;52.252;9.124;2023-02-27T15:39:18;100906.59;;;5.08
49154;BMP280;49455;52.252;9.124;2023-02-27T15:44:26;100901.06;;;5.14
49154;BMP280;49455;52.252;9.124;2023-02-27T15:49:27;100905.59;;;5.06
49154;BMP280;49455;52.252;9.124;2023-02-27T15:54:34;100904.66;;;4.80
49154;BMP280;49455;52.252;9.124;2023-02-27T15:59:39;100917.53;;;4.81
49154;BMP280;49455;52.252;9.124;2023-02-27T16:04:43;100918.91;;;4.41
49154;BMP280;49455;52.252;9.124;2023-02-27T16:09:48;100919.97;;;4.31
49154;BMP280;49455;52.252;9.124;2023-02-27T16:14:50;100927.22;;;4.25
49154;BMP280;49455;52.252;9.124;2023-02-27T16:19:52;100924.88;;;4.06
49154;BMP280;49455;52.252;9.124;2023-02-27T16:24:53;100929.03;;;3.92
49154;BMP280;49455;52.252;9.124;2023-02-27T16:29:56;100932.38;;;3.69
49154;BMP280;49455;52.252;9.124;2023-02-27T16:35:03;100939.38;;;3.60
49154;BMP280;49455;52.252;9.124;2023-02-27T16:40:22;100940.81;;;3.45
49154;BMP280;49455;52.252;9.124;2023-02-27T16:45:25;100950.81;;;3.31
49154;BMP280;49455;52.252;9.124;2023-02-27T16:50:30;100953.78;;;3.14
49154;BMP280;49455;52.252;9.124;2023-02-27T16:55:31;100960.38;;;3.01
49154;BMP280;49455;52.252;9.124;2023-02-27T17:00:31;100956.13;;;2.90
49154;BMP280;49455;52.252;9.124;2023-02-27T17:05:32;100970.72;;;2.81
49154;BMP280;49455;52.252;9.124;2023-02-27T17:10:33;100962.94;;;2.69
49154;BMP280;49455;52.252;9.124;2023-02-27T17:15:33;100962.97;;;2.59
49154;BMP280;49455;52.252;9.124;2023-02-27T17:20:33;100970.44;;;2.46
49154;BMP280;49455;52.252;9.124;2023-02-27T17:25:34;100975.66;;;2.26
49154;BMP280;49455;52.252;9.124;2023-02-27T17:30:34;100981.72;;;2.17
49154;BMP280;49455;52.252;9.124;2023-02-27T17:35:35;100986.19;;;2.10
49154;BMP280;49455;52.252;9.124;2023-02-27T17:40:36;100975.75;;;2.07
49154;BMP280;49455;52.252;9.124;2023-02-27T17:45:37;100988.25;;;2.04
49154;BMP280;49455;52.252;9.124;2023-02-27T17:50:38;100993.94;;;2.11
49154;BMP280;49455;52.252;9.124;2023-02-27T17:55:38;100999.41;;;2.15
49154;BMP280;49455;52.252;9.124;2023-02-27T18:00:39;100998.91;;;2.19
49154;BMP280;49455;52.252;9.124;2023-02-27T18:05:46;100992.78;;;2.17
49154;BMP280;49455;52.252;9.124;2023-02-27T18:10:48;100997.81;;;2.27
49154;BMP280;49455;52.252;9.124;2023-02-27T18:15:49;100991.97;;;2.28
49154;BMP280;49455;52.252;9.124;2023-02-27T18:21:00;100994.53;;;2.28
49154;BMP280;49455;52.252;9.124;2023-02-27T18:26:00;100985.88;;;2.26
49154;BMP280;49455;52.252;9.124;2023-02-27T18:31:01;100994.75;;;2.31
49154;BMP280;49455;52.252;9.124;2023-02-27T18:36:01;100993.97;;;2.32
49154;BMP280;49455;52.252;9.124;2023-02-27T18:41:02;100998.34;;;2.33
49154;BMP280;49455;52.252;9.124;2023-02-27T18:46:02;100998.97;;;2.31
49154;BMP280;49455;52.252;9.124;2023-02-27T18:51:06;100991.19;;;2.29
49154;BMP280;49455;52.252;9.124;2023-02-27T18:56:08;100996.19;;;2.28
49154;BMP280;49455;52.252;9.124;2023-02-27T19:06:23;100998.63;;;2.16
49154;BMP280;49455;52.252;9.124;2023-02-27T19:11:28;101000.19;;;2.14
49154;BMP280;49455;52.252;9.124;2023-02-27T19:16:29;101002.00;;;2.06
49154;BMP280;49455;52.252;9.124;2023-02-27T19:21:30;101008.16;;;1.98
49154;BMP280;49455;52.252;9.124;2023-02-27T19:26:31;101002.94;;;1.86
49154;BMP280;49455;52.252;9.124;2023-02-27T19:31:32;101009.63;;;1.75
49154;BMP280;49455;52.252;9.124;2023-02-27T19:36:33;101009.13;;;1.59
49154;BMP280;49455;52.252;9.124;2023-02-27T19:41:33;101015.00;;;1.48
49154;BMP280;49455;52.252;9.124;2023-02-27T19:46:34;101016.56;;;1.36
49154;BMP280;49455;52.252;9.124;2023-02-27T19:51:34;101026.34;;;1.32
49154;BMP280;49455;52.252;9.124;2023-02-27T19:56:35;101014.88;;;1.27
49154;BMP280;49455;52.252;9.124;2023-02-27T20:01:35;101022.91;;;1.21
49154;BMP280;49455;52.252;9.124;2023-02-27T20:06:36;101015.13;;;1.10
49154;BMP280;49455;52.252;9.124;2023-02-27T20:11:37;101004.69;;;0.97
49154;BMP280;49455;52.252;9.124;2023-02-27T20:16:38;101020.69;;;0.87
49154;BMP280;49455;52.252;9.124;2023-02-27T20:21:39;101019.69;;;0.75
49154;BMP280;49455;52.252;9.124;2023-02-27T20:26:42;101026.91;;;0.70
49154;BMP280;49455;52.252;9.124;2023-02-27T20:31:45;101020.16;;;0.61
49154;BMP280;49455;52.252;9.124;2023-02-27T20:36:47;101026.97;;;0.42
49154;BMP280;49455;52.252;9.124;2023-02-27T20:41:47;101027.22;;;0.45
49154;BMP280;49455;52.252;9.124;2023-02-27T20:46:48;101028.25;;;0.47
49154;BMP280;49455;52.252;9.124;2023-02-27T20:51:48;101036.00;;;0.49
49154;BMP280;49455;52.252;9.124;2023-02-27T20:56:50;101033.38;;;0.57
49154;BMP280;49455;52.252;9.124;2023-02-27T21:01:51;101038.22;;;0.64
49154;BMP280;49455;52.252;9.124;2023-02-27T21:06:51;101041.53;;;0.63
49154;BMP280;49455;52.252;9.124;2023-02-27T21:11:52;101038.19;;;0.54
49154;BMP280;49455;52.252;9.124;2023-02-27T21:16:52;101040.59;;;0.53
49154;BMP280;49455;52.252;9.124;2023-02-27T21:21:52;101043.88;;;0.42
49154;BMP280;49455;52.252;9.124;2023-02-27T21:26:53;101050.84;;;0.34
49154;BMP280;49455;52.252;9.124;2023-02-27T21:31:53;101053.34;;;0.25
49154;BMP280;49455;52.252;9.124;2023-02-27T21:36:54;101058.13;;;0.22
49154;BMP280;49455;52.252;9.124;2023-02-27T21:41:54;101055.16;;;0.07
49154;BMP280;49455;52.252;9.124;2023-02-27T21:46:55;101067.06;;;-0.01
49154;BMP280;49455;52.252;9.124;2023-02-27T21:51:55;101061.50;;;-0.16
49154;BMP280;49455;52.252;9.124;2023-02-27T21:56:56;101059.94;;;-0.24
49154;BMP280;49455;52.252;9.124;2023-02-27T22:01:56;101057.41;;;-0.24
49154;BMP280;49455;52.252;9.124;2023-02-27T22:06:57;101062.13;;;-0.36
49154;BMP280;49455;52.252;9.124;2023-02-27T22:11:58;101055.28;;;-0.37
49154;BMP280;49455;52.252;9.124;2023-02-27T22:16:58;101059.47;;;-0.38
49154;BMP280;49455;52.252;9.124;2023-02-27T22:21:58;101056.00;;;-0.38
49154;BMP280;49455;52.252;9.124;2023-02-27T22:26:59;101055.72;;;-0.41
49154;BMP280;49455;52.252;9.124;2023-02-27T22:31:59;101058.28;;;-0.41
49154;BMP280;49455;52.252;9.124;2023-02-27T22:36:59;101057.66;;;-0.39
49154;BMP280;49455;52.252;9.124;2023-02-27T22:42:00;101062.75;;;-0.39
49154;BMP280;49455;52.252;9.124;2023-02-27T22:47:00;101068.91;;;-0.45
49154;BMP280;49455;52.252;9.124;2023-02-27T22:52:01;101061.56;;;-0.42
49154;BMP280;49455;52.252;9.124;2023-02-27T22:57:01;101058.53;;;-0.38
49154;BMP280;49455;52.252;9.124;2023-02-27T23:02:02;101060.41;;;-0.46
49154;BMP280;49455;52.252;9.124;2023-02-27T23:07:02;101063.06;;;-0.44
49154;BMP280;49455;52.252;9.124;2023-02-27T23:12:03;101065.50;;;-0.46
49154;BMP280;49455;52.252;9.124;2023-02-27T23:17:03;101070.34;;;-0.39
49154;BMP280;49455;52.252;9.124;2023-02-27T23:22:04;101071.56;;;-0.44
49154;BMP280;49455;52.252;9.124;2023-02-27T23:27:04;101074.94;;;-0.53
49154;BMP280;49455;52.252;9.124;2023-02-27T23:32:04;101080.22;;;-0.60
49154;BMP280;49455;52.252;9.124;2023-02-27T23:37:05;101082.63;;;-0.61
49154;BMP280;49455;52.252;9.124;2023-02-27T23:42:05;101090.03;;;-0.55
49154;BMP280;49455;52.252;9.124;2023-02-27T23:47:06;101088.81;;;-0.50
49154;BMP280;49455;52.252;9.124;2023-02-27T23:52:06;101089.22;;;-0.45
49154;BMP280;49455;52.252;9.124;2023-02-27T23:57:07;101091.09;;;-0.34
